sensor_id;sensor_type;location;lat;lon;timestamp;pressure;altitude;pressure_sealevel;temperature;humidity
75942;BME280;64622;46.220;19.878;2022-12-07T00:01:30;100638.16;;;-1.26;100.00
75942;BME280;64622;46.220;19.878;2022-12-07T00:03:59;100649.75;;;-1.30;100.00
75942;BME280;64622;46.220;19.878;2022-12-07T00:06:33;100642.88;;;-1.32;100.00
75942;BME280;64622;46.220;19.878;2022-12-07T00:09:00;100652.97;;;-1.42;100.00
75942;BME280;64622;46.220;19.878;2022-12-07T00:11:26;100646.00;;;-1.60;100.00
75942;BME280;64622;46.220;19.878;2022-12-07T00:13:55;100658.56;;;-1.66;100.00
75942;BME280;64622;46.220;19.878;2022-12-07T00:16:25;100658.91;;;-1.74;100.00
75942;BME280;64622;46.220;19.878;2022-12-07T00:18:52;100657.59;;;-1.82;100.00
75942;BME280;64622;46.220;19.878;2022-12-07T00:21:22;100669.28;;;-1.71;100.00
75942;BME280;64622;46.220;19.878;2022-12-07T00:23:50;100662.53;;;-1.76;100.00
75942;BME280;64622;46.220;19.878;2022-12-07T00:26:26;100672.13;;;-1.75;100.00
75942;BME280;64622;46.220;19.878;2022-12-07T00:28:58;100674.97;;;-1.80;100.00
75942;BME280;64622;46.220;19.878;2022-12-07T00:31:31;100672.50;;;-1.83;100.00
75942;BME280;64622;46.220;19.878;2022-12-07T00:34:00;100663.72;;;-2.00;100.00
75942;BME280;64622;46.220;19.878;2022-12-07T00:36:27;100664.91;;;-2.07;100.00
75942;BME280;64622;46.220;19.878;2022-12-07T00:38:55;100657.34;;;-2.13;100.00
75942;BME280;64622;46.220;19.878;2022-12-07T00:41:26;100663.28;;;-2.28;100.00
75942;BME280;64622;46.220;19.878;2022-12-07T00:43:52;100648.84;;;-2.37;100.00
75942;BME280;64622;46.220;19.878;2022-12-07T00:46:20;100645.62;;;-2.43;100.00
75942;BME280;64622;46.220;19.878;2022-12-07T00:48:47;100656.12;;;-2.43;100.00
75942;BME280;64622;46.220;19.878;2022-12-07T00:51:16;100645.41;;;-2.57;100.00
75942;BME280;64622;46.220;19.878;2022-12-07T00:53:43;100659.69;;;-2.64;100.00
75942;BME280;64622;46.220;19.878;2022-12-07T00:56:19;100636.59;;;-2.75;100.00
75942;BME280;64622;46.220;19.878;2022-12-07T00:58:52;100645.97;;;-2.69;100.00
75942;BME280;64622;46.220;19.878;2022-12-07T01:01:19;100647.66;;;-2.68;100.00
75942;BME280;64622;46.220;19.878;2022-12-07T01:03:46;100641.09;;;-2.58;100.00
75942;BME280;64622;46.220;19.878;2022-12-07T01:06:18;100637.47;;;-2.56;100.00
75942;BME280;64622;46.220;19.878;2022-12-07T01:08:45;100642.44;;;-2.50;100.00
75942;BME280;64622;46.220;19.878;2022-12-07T01:11:14;100629.84;;;-2.60;100.00
75942;BME280;64622;46.220;19.878;2022-12-07T01:13:42;100643.63;;;-2.57;100.00
75942;BME280;64622;46.220;19.878;2022-12-07T01:16:11;100623.31;;;-2.70;100.00
75942;BME280;64622;46.220;19.878;2022-12-07T01:18:39;100619.66;;;-2.47;100.00
75942;BME280;64622;46.220;19.878;2022-12-07T01:21:07;100636.13;;;-2.09;100.00
75942;BME280;64622;46.220;19.878;2022-12-07T01:23:35;100646.78;;;-1.93;100.00
75942;BME280;64622;46.220;19.878;2022-12-07T01:26:07;100634.53;;;-1.92;100.00
75942;BME280;64622;46.220;19.878;2022-12-07T01:28:36;100642.44;;;-1.94;100.00
75942;BME280;64622;46.220;19.878;2022-12-07T01:31:08;100644.34;;;-2.16;100.00
75942;BME280;64622;46.220;19.878;2022-12-07T01:33:38;100637.37;;;-2.34;100.00
75942;BME280;64622;46.220;19.878;2022-12-07T01:36:12;100636.38;;;-2.50;100.00
75942;BME280;64622;46.220;19.878;2022-12-07T01:38:39;100619.53;;;-2.65;100.00
75942;BME280;64622;46.220;19.878;2022-12-07T01:41:06;100627.50;;;-2.66;100.00
75942;BME280;64622;46.220;19.878;2022-12-07T01:43:34;100616.06;;;-2.83;100.00
75942;BME280;64622;46.220;19.878;2022-12-07T01:46:02;100633.31;;;-2.80;100.00
75942;BME280;64622;46.220;19.878;2022-12-07T01:48:40;100628.28;;;-2.84;100.00
75942;BME280;64622;46.220;19.878;2022-12-07T01:51:10;100618.59;;;-2.82;100.00
75942;BME280;64622;46.220;19.878;2022-12-07T01:53:41;100631.94;;;-2.68;100.00
75942;BME280;64622;46.220;19.878;2022-12-07T01:56:11;100622.38;;;-2.69;100.00
75942;BME280;64622;46.220;19.878;2022-12-07T01:58:42;100623.59;;;-2.58;100.00
75942;BME280;64622;46.220;19.878;2022-12-07T02:01:09;100617.38;;;-2.55;100.00
75942;BME280;64622;46.220;19.878;2022-12-07T02:03:40;100625.53;;;-2.42;100.00
75942;BME280;64622;46.220;19.878;2022-12-07T02:06:08;100632.19;;;-2.36;100.00
75942;BME280;64622;46.220;19.878;2022-12-07T02:08:37;100624.66;;;-2.43;100.00
75942;BME280;64622;46.220;19.878;2022-12-07T02:11:05;100626.87;;;-2.53;100.00
75942;BME280;64622;46.220;19.878;2022-12-07T02:13:35;100626.94;;;-2.54;100.00
75942;BME280;64622;46.220;19.878;2022-12-07T02:22:25;100621.00;;;-2.58;100.00
75942;BME280;64622;46.220;19.878;2022-12-07T02:25:33;100627.91;;;-2.75;100.00
75942;BME280;64622;46.220;19.878;2022-12-07T02:28:19;100609.38;;;-2.91;100.00
75942;BME280;64622;46.220;19.878;2022-12-07T02:30:54;100616.41;;;-2.91;100.00
75942;BME280;64622;46.220;19.878;2022-12-07T02:33:49;100616.75;;;-2.98;100.00
75942;BME280;64622;46.220;19.878;2022-12-07T02:36:25;100615.09;;;-3.01;100.00
75942;BME280;64622;46.220;19.878;2022-12-07T02:41:30;100606.44;;;-2.83;100.00
75942;BME280;64622;46.220;19.878;2022-12-07T02:44:21;100596.94;;;-2.86;100.00
75942;BME280;64622;46.220;19.878;2022-12-07T02:47:03;100600.19;;;-2.81;100.00
75942;BME280;64622;46.220;19.878;2022-12-07T02:49:31;100596.09;;;-2.86;100.00
75942;BME280;64622;46.220;19.878;2022-12-07T02:51:58;100598.78;;;-2.87;100.00
75942;BME280;64622;46.220;19.878;2022-12-07T02:54:25;100597.00;;;-2.87;100.00
75942;BME280;64622;46.220;19.878;2022-12-07T03:05:36;100598.22;;;-2.76;100.00
75942;BME280;64622;46.220;19.878;2022-12-07T03:11:14;100587.34;;;-2.67;100.00
75942;BME280;64622;46.220;19.878;2022-12-07T03:13:50;100587.56;;;-2.71;100.00
75942;BME280;64622;46.220;19.878;2022-12-07T03:16:25;100586.13;;;-2.78;100.00
75942;BME280;64622;46.220;19.878;2022-12-07T03:18:58;100579.81;;;-2.74;100.00
75942;BME280;64622;46.220;19.878;2022-12-07T03:21:31;100566.25;;;-2.63;100.00
75942;BME280;64622;46.220;19.878;2022-12-07T03:24:00;100570.62;;;-2.64;100.00
75942;BME280;64622;46.220;19.878;2022-12-07T03:26:34;100568.59;;;-2.58;100.00
75942;BME280;64622;46.220;19.878;2022-12-07T03:29:08;100556.38;;;-2.77;100.00
75942;BME280;64622;46.220;19.878;2022-12-07T03:31:43;100556.72;;;-2.85;100.00
75942;BME280;64622;46.220;19.878;2022-12-07T03:34:29;100562.06;;;-2.86;100.00
75942;BME280;64622;46.220;19.878;2022-12-07T03:37:02;100541.41;;;-2.73;100.00
75942;BME280;64622;46.220;19.878;2022-12-07T03:41:59;100550.66;;;-2.85;100.00
75942;BME280;64622;46.220;19.878;2022-12-07T03:44:26;100550.78;;;-2.88;100.00
75942;BME280;64622;46.220;19.878;2022-12-07T03:52:38;100536.75;;;-3.06;100.00
75942;BME280;64622;46.220;19.878;2022-12-07T03:55:30;100555.00;;;-3.04;100.00
75942;BME280;64622;46.220;19.878;2022-12-07T03:58:03;100549.00;;;-3.06;100.00
75942;BME280;64622;46.220;19.878;2022-12-07T04:00:31;100539.88;;;-2.97;100.00
75942;BME280;64622;46.220;19.878;2022-12-07T04:02:58;100545.13;;;-2.97;100.00
75942;BME280;64622;46.220;19.878;2022-12-07T04:05:24;100543.16;;;-2.92;100.00
75942;BME280;64622;46.220;19.878;2022-12-07T04:07:51;100539.72;;;-2.95;100.00
75942;BME280;64622;46.220;19.878;2022-12-07T04:10:18;100534.34;;;-3.10;100.00
75942;BME280;64622;46.220;19.878;2022-12-07T04:12:44;100552.78;;;-3.13;100.00
75942;BME280;64622;46.220;19.878;2022-12-07T04:15:11;100550.34;;;-3.16;100.00
75942;BME280;64622;46.220;19.878;2022-12-07T04:17:38;100545.94;;;-3.16;100.00
75942;BME280;64622;46.220;19.878;2022-12-07T04:20:06;100545.66;;;-3.10;100.00
75942;BME280;64622;46.220;19.878;2022-12-07T04:22:33;100547.88;;;-3.01;100.00
75942;BME280;64622;46.220;19.878;2022-12-07T04:25:00;100549.50;;;-2.98;100.00
75942;BME280;64622;46.220;19.878;2022-12-07T04:27:26;100549.37;;;-2.95;100.00
75942;BME280;64622;46.220;19.878;2022-12-07T04:29:53;100553.97;;;-3.00;100.00
75942;BME280;64622;46.220;19.878;2022-12-07T04:32:20;100540.75;;;-3.17;100.00
75942;BME280;64622;46.220;19.878;2022-12-07T04:34:46;100546.47;;;-3.28;100.00
75942;BME280;64622;46.220;19.878;2022-12-07T04:37:13;100553.50;;;-3.10;100.00
75942;BME280;64622;46.220;19.878;2022-12-07T04:39:39;100558.50;;;-3.03;100.00
75942;BME280;64622;46.220;19.878;2022-12-07T04:42:06;100561.00;;;-3.02;100.00
75942;BME280;64622;46.220;19.878;2022-12-07T04:44:33;100555.59;;;-2.97;100.00
75942;BME280;64622;46.220;19.878;2022-12-07T04:46:59;100558.41;;;-3.02;100.00
75942;BME280;64622;46.220;19.878;2022-12-07T04:49:26;100558.03;;;-3.13;100.00
75942;BME280;64622;46.220;19.878;2022-12-07T04:51:53;100552.37;;;-3.22;100.00
75942;BME280;64622;46.220;19.878;2022-12-07T04:54:19;100555.75;;;-3.21;100.00
75942;BME280;64622;46.220;19.878;2022-12-07T04:56:46;100547.78;;;-3.17;100.00
75942;BME280;64622;46.220;19.878;2022-12-07T04:59:14;100555.06;;;-3.06;100.00
75942;BME280;64622;46.220;19.878;2022-12-07T05:01:42;100560.25;;;-3.04;100.00
75942;BME280;64622;46.220;19.878;2022-12-07T05:04:09;100552.47;;;-3.06;100.00
75942;BME280;64622;46.220;19.878;2022-12-07T05:06:36;100550.00;;;-3.08;100.00
75942;BME280;64622;46.220;19.878;2022-12-07T05:09:04;100557.41;;;-3.00;100.00
75942;BME280;64622;46.220;19.878;2022-12-07T05:11:31;100546.25;;;-3.03;100.00
75942;BME280;64622;46.220;19.878;2022-12-07T05:14:11;100557.34;;;-2.98;100.00
75942;BME280;64622;46.220;19.878;2022-12-07T05:16:39;100556.78;;;-3.05;100.00
75942;BME280;64622;46.220;19.878;2022-12-07T05:19:06;100556.44;;;-2.97;100.00
75942;BME280;64622;46.220;19.878;2022-12-07T05:21:34;100558.59;;;-2.87;100.00
75942;BME280;64622;46.220;19.878;2022-12-07T05:24:00;100559.44;;;-2.86;100.00
75942;BME280;64622;46.220;19.878;2022-12-07T05:26:27;100558.28;;;-2.81;100.00
75942;BME280;64622;46.220;19.878;2022-12-07T05:28:55;100542.94;;;-2.88;100.00
75942;BME280;64622;46.220;19.878;2022-12-07T05:31:23;100556.81;;;-2.86;100.00
75942;BME280;64622;46.220;19.878;2022-12-07T05:33:50;100548.56;;;-2.97;100.00
75942;BME280;64622;46.220;19.878;2022-12-07T05:36:18;100566.72;;;-2.92;100.00
75942;BME280;64622;46.220;19.878;2022-12-07T05:38:45;100555.00;;;-3.04;100.00
75942;BME280;64622;46.220;19.878;2022-12-07T05:41:16;100569.03;;;-3.05;100.00
75942;BME280;64622;46.220;19.878;2022-12-07T05:44:02;100568.22;;;-3.07;100.00
75942;BME280;64622;46.220;19.878;2022-12-07T05:46:29;100559.94;;;-3.17;100.00
75942;BME280;64622;46.220;19.878;2022-12-07T05:48:56;100572.81;;;-3.12;100.00
75942;BME280;64622;46.220;19.878;2022-12-07T05:51:22;100563.81;;;-3.25;100.00
75942;BME280;64622;46.220;19.878;2022-12-07T05:53:49;100574.28;;;-3.45;100.00
75942;BME280;64622;46.220;19.878;2022-12-07T05:56:15;100565.94;;;-3.55;100.00
75942;BME280;64622;46.220;19.878;2022-12-07T05:58:43;100567.06;;;-3.60;100.00
75942;BME280;64622;46.220;19.878;2022-12-07T06:01:30;100572.16;;;-3.57;100.00
75942;BME280;64622;46.220;19.878;2022-12-07T06:03:56;100564.41;;;-3.58;100.00
75942;BME280;64622;46.220;19.878;2022-12-07T06:06:23;100571.12;;;-3.53;100.00
75942;BME280;64622;46.220;19.878;2022-12-07T06:08:49;100565.13;;;-3.55;100.00
75942;BME280;64622;46.220;19.878;2022-12-07T06:11:16;100576.19;;;-3.48;100.00
75942;BME280;64622;46.220;19.878;2022-12-07T06:14:02;100577.00;;;-3.48;100.00
75942;BME280;64622;46.220;19.878;2022-12-07T06:16:29;100551.50;;;-3.63;100.00
75942;BME280;64622;46.220;19.878;2022-12-07T06:18:55;100574.94;;;-3.60;100.00
75942;BME280;64622;46.220;19.878;2022-12-07T06:21:22;100573.91;;;-3.78;100.00
75942;BME280;64622;46.220;19.878;2022-12-07T06:23:48;100569.84;;;-3.85;100.00
75942;BME280;64622;46.220;19.878;2022-12-07T06:26:15;100574.34;;;-3.88;100.00
75942;BME280;64622;46.220;19.878;2022-12-07T06:28:41;100570.91;;;-3.88;100.00
75942;BME280;64622;46.220;19.878;2022-12-07T06:31:08;100575.25;;;-3.89;100.00
75942;BME280;64622;46.220;19.878;2022-12-07T06:33:35;100574.34;;;-3.88;100.00
75942;BME280;64622;46.220;19.878;2022-12-07T06:36:02;100580.84;;;-3.77;100.00
75942;BME280;64622;46.220;19.878;2022-12-07T06:38:29;100576.81;;;-3.63;100.00
75942;BME280;64622;46.220;19.878;2022-12-07T06:40:56;100582.72;;;-3.58;100.00
75942;BME280;64622;46.220;19.878;2022-12-07T06:43:22;100577.94;;;-3.49;100.00
75942;BME280;64622;46.220;19.878;2022-12-07T06:45:49;100564.84;;;-3.49;100.00
75942;BME280;64622;46.220;19.878;2022-12-07T06:48:16;100566.81;;;-3.34;100.00
75942;BME280;64622;46.220;19.878;2022-12-07T06:50:47;100569.81;;;-3.23;100.00
75942;BME280;64622;46.220;19.878;2022-12-07T06:53:14;100552.37;;;-3.22;100.00
75942;BME280;64622;46.220;19.878;2022-12-07T06:55:40;100565.78;;;-2.92;100.00
75942;BME280;64622;46.220;19.878;2022-12-07T06:58:07;100564.00;;;-2.71;100.00
75942;BME280;64622;46.220;19.878;2022-12-07T07:00:34;100557.88;;;-2.53;100.00
75942;BME280;64622;46.220;19.878;2022-12-07T07:03:01;100555.47;;;-2.39;100.00
75942;BME280;64622;46.220;19.878;2022-12-07T07:05:28;100552.97;;;-2.24;100.00
75942;BME280;64622;46.220;19.878;2022-12-07T07:07:55;100563.09;;;-1.98;100.00
75942;BME280;64622;46.220;19.878;2022-12-07T07:10:21;100562.34;;;-1.83;100.00
75942;BME280;64622;46.220;19.878;2022-12-07T07:12:47;100560.09;;;-1.56;100.00
75942;BME280;64622;46.220;19.878;2022-12-07T07:15:14;100564.12;;;-1.49;100.00
75942;BME280;64622;46.220;19.878;2022-12-07T07:17:41;100559.72;;;-1.49;100.00
75942;BME280;64622;46.220;19.878;2022-12-07T07:20:09;100538.53;;;-1.29;100.00
75942;BME280;64622;46.220;19.878;2022-12-07T07:22:36;100552.69;;;-0.99;100.00
75942;BME280;64622;46.220;19.878;2022-12-07T07:25:03;100536.50;;;-0.59;100.00
75942;BME280;64622;46.220;19.878;2022-12-07T07:27:30;100537.09;;;0.08;100.00
75942;BME280;64622;46.220;19.878;2022-12-07T07:29:56;100540.28;;;0.72;100.00
75942;BME280;64622;46.220;19.878;2022-12-07T07:32:23;100549.56;;;1.07;100.00
75942;BME280;64622;46.220;19.878;2022-12-07T07:34:49;100536.13;;;1.12;100.00
75942;BME280;64622;46.220;19.878;2022-12-07T07:37:16;100546.06;;;1.35;100.00
75942;BME280;64622;46.220;19.878;2022-12-07T07:39:42;100547.78;;;1.08;100.00
75942;BME280;64622;46.220;19.878;2022-12-07T07:42:09;100539.94;;;0.92;100.00
75942;BME280;64622;46.220;19.878;2022-12-07T07:44:38;100552.88;;;1.11;100.00
75942;BME280;64622;46.220;19.878;2022-12-07T07:47:04;100548.63;;;1.22;99.00
75942;BME280;64622;46.220;19.878;2022-12-07T07:49:31;100565.38;;;1.63;97.29
75942;BME280;64622;46.220;19.878;2022-12-07T07:51:58;100571.94;;;1.84;95.85
75942;BME280;64622;46.220;19.878;2022-12-07T07:54:24;100559.41;;;1.74;96.27
75942;BME280;64622;46.220;19.878;2022-12-07T07:56:52;100579.00;;;1.70;96.01
75942;BME280;64622;46.220;19.878;2022-12-07T07:59:18;100572.13;;;1.81;94.76
75942;BME280;64622;46.220;19.878;2022-12-07T08:01:45;100570.25;;;2.10;94.16
75942;BME280;64622;46.220;19.878;2022-12-07T08:04:12;100582.44;;;2.51;93.33
75942;BME280;64622;46.220;19.878;2022-12-07T08:06:39;100581.75;;;2.62;92.11
75942;BME280;64622;46.220;19.878;2022-12-07T08:09:05;100576.41;;;3.01;91.48
75942;BME280;64622;46.220;19.878;2022-12-07T08:11:33;100576.53;;;3.37;90.67
75942;BME280;64622;46.220;19.878;2022-12-07T08:13:59;100575.97;;;3.57;90.33
75942;BME280;64622;46.220;19.878;2022-12-07T08:16:26;100565.81;;;3.99;88.81
75942;BME280;64622;46.220;19.878;2022-12-07T08:18:53;100575.53;;;4.35;87.81
75942;BME280;64622;46.220;19.878;2022-12-07T08:21:20;100573.22;;;4.54;85.70
75942;BME280;64622;46.220;19.878;2022-12-07T08:23:46;100576.50;;;5.03;86.76
75942;BME280;64622;46.220;19.878;2022-12-07T08:26:15;100568.09;;;5.20;84.12
75942;BME280;64622;46.220;19.878;2022-12-07T08:28:42;100578.72;;;5.42;84.78
75942;BME280;64622;46.220;19.878;2022-12-07T08:31:13;100583.19;;;5.63;82.67
75942;BME280;64622;46.220;19.878;2022-12-07T08:33:41;100576.81;;;5.66;85.04
75942;BME280;64622;46.220;19.878;2022-12-07T08:36:09;100591.28;;;5.62;82.94
75942;BME280;64622;46.220;19.878;2022-12-07T08:38:38;100580.28;;;5.44;84.50
75942;BME280;64622;46.220;19.878;2022-12-07T08:41:05;100595.72;;;5.39;84.54
75942;BME280;64622;46.220;19.878;2022-12-07T08:43:32;100586.56;;;5.43;84.25
75942;BME280;64622;46.220;19.878;2022-12-07T08:46:20;100588.50;;;5.52;89.77
75942;BME280;64622;46.220;19.878;2022-12-07T08:49:02;100593.59;;;5.77;84.97
75942;BME280;64622;46.220;19.878;2022-12-07T08:51:30;100607.69;;;5.45;87.76
75942;BME280;64622;46.220;19.878;2022-12-07T08:53:58;100592.44;;;5.14;87.82
75942;BME280;64622;46.220;19.878;2022-12-07T08:56:26;100596.37;;;4.97;88.52
75942;BME280;64622;46.220;19.878;2022-12-07T08:58:53;100603.16;;;5.12;89.84
75942;BME280;64622;46.220;19.878;2022-12-07T09:01:21;100602.50;;;5.32;87.65
75942;BME280;64622;46.220;19.878;2022-12-07T09:03:47;100606.00;;;5.44;89.12
75942;BME280;64622;46.220;19.878;2022-12-07T09:06:14;100600.34;;;5.59;87.02
75942;BME280;64622;46.220;19.878;2022-12-07T09:08:46;100593.44;;;6.12;87.70
75942;BME280;64622;46.220;19.878;2022-12-07T09:11:13;100590.81;;;6.54;85.33
75942;BME280;64622;46.220;19.878;2022-12-07T09:13:40;100602.41;;;6.11;85.53
75942;BME280;64622;46.220;19.878;2022-12-07T09:16:07;100601.19;;;5.71;89.13
75942;BME280;64622;46.220;19.878;2022-12-07T09:18:33;100602.81;;;6.49;85.64
75942;BME280;64622;46.220;19.878;2022-12-07T09:21:00;100588.50;;;7.13;82.96
75942;BME280;64622;46.220;19.878;2022-12-07T09:23:26;100596.13;;;6.86;82.54
75942;BME280;64622;46.220;19.878;2022-12-07T09:25:53;100590.72;;;7.08;80.59
75942;BME280;64622;46.220;19.878;2022-12-07T09:28:19;100589.75;;;6.78;82.65
75942;BME280;64622;46.220;19.878;2022-12-07T09:30:47;100583.69;;;7.28;81.71
75942;BME280;64622;46.220;19.878;2022-12-07T09:33:14;100576.59;;;7.68;85.31
75942;BME280;64622;46.220;19.878;2022-12-07T09:35:45;100573.91;;;7.58;83.38
75942;BME280;64622;46.220;19.878;2022-12-07T09:38:12;100575.78;;;7.17;80.31
75942;BME280;64622;46.220;19.878;2022-12-07T09:40:40;100578.06;;;7.51;80.25
75942;BME280;64622;46.220;19.878;2022-12-07T09:43:17;100568.72;;;8.05;79.02
75942;BME280;64622;46.220;19.878;2022-12-07T09:45:47;100578.41;;;8.65;79.45
75942;BME280;64622;46.220;19.878;2022-12-07T09:48:23;100576.47;;;8.77;82.54
75942;BME280;64622;46.220;19.878;2022-12-07T09:50:54;100568.87;;;7.64;78.69
75942;BME280;64622;46.220;19.878;2022-12-07T09:53:28;100572.50;;;6.93;82.66
75942;BME280;64622;46.220;19.878;2022-12-07T09:55:56;100558.22;;;6.73;82.57
75942;BME280;64622;46.220;19.878;2022-12-07T09:58:25;100569.78;;;7.03;83.29
75942;BME280;64622;46.220;19.878;2022-12-07T10:00:56;100573.53;;;7.42;90.25
75942;BME280;64622;46.220;19.878;2022-12-07T10:03:29;100565.81;;;7.18;82.88
75942;BME280;64622;46.220;19.878;2022-12-07T10:05:56;100570.56;;;6.74;80.96
75942;BME280;64622;46.220;19.878;2022-12-07T10:08:24;100572.87;;;6.36;83.53
75942;BME280;64622;46.220;19.878;2022-12-07T10:10:53;100571.56;;;6.19;83.72
75942;BME280;64622;46.220;19.878;2022-12-07T10:13:34;100569.69;;;6.11;84.49
75942;BME280;64622;46.220;19.878;2022-12-07T10:16:02;100572.25;;;5.90;85.50
75942;BME280;64622;46.220;19.878;2022-12-07T10:18:41;100572.03;;;6.24;85.26
75942;BME280;64622;46.220;19.878;2022-12-07T10:29:21;100558.13;;;6.43;86.25
75942;BME280;64622;46.220;19.878;2022-12-07T10:34:34;100558.09;;;6.12;86.38
75942;BME280;64622;46.220;19.878;2022-12-07T10:37:17;100566.69;;;6.67;82.41
75942;BME280;64622;46.220;19.878;2022-12-07T10:42:29;100558.75;;;6.87;79.45
75942;BME280;64622;46.220;19.878;2022-12-07T10:45:16;100560.69;;;7.27;80.39
75942;BME280;64622;46.220;19.878;2022-12-07T10:47:51;100563.91;;;6.68;81.49
75942;BME280;64622;46.220;19.878;2022-12-07T10:53:49;100552.47;;;7.09;80.61
75942;BME280;64622;46.220;19.878;2022-12-07T10:56:48;100538.13;;;7.01;77.72
75942;BME280;64622;46.220;19.878;2022-12-07T10:59:24;100533.06;;;7.18;82.95
75942;BME280;64622;46.220;19.878;2022-12-07T11:10:44;100534.75;;;7.88;75.24
75942;BME280;64622;46.220;19.878;2022-12-07T11:13:23;100531.81;;;7.52;76.49
75942;BME280;64622;46.220;19.878;2022-12-07T11:16:11;100527.44;;;7.51;78.78
75942;BME280;64622;46.220;19.878;2022-12-07T11:21:44;100532.63;;;7.92;80.64
75942;BME280;64622;46.220;19.878;2022-12-07T11:24:29;100535.09;;;7.74;79.79
75942;BME280;64622;46.220;19.878;2022-12-07T11:27:11;100541.13;;;7.67;75.04
75942;BME280;64622;46.220;19.878;2022-12-07T11:29:53;100530.47;;;7.67;77.27
75942;BME280;64622;46.220;19.878;2022-12-07T11:32:53;100517.44;;;7.64;72.18
75942;BME280;64622;46.220;19.878;2022-12-07T11:35:49;100519.13;;;7.35;71.93
75942;BME280;64622;46.220;19.878;2022-12-07T11:38:25;100515.97;;;7.51;78.72
75942;BME280;64622;46.220;19.878;2022-12-07T11:41:00;100514.19;;;7.61;77.80
75942;BME280;64622;46.220;19.878;2022-12-07T11:44:22;100516.78;;;7.42;81.78
75942;BME280;64622;46.220;19.878;2022-12-07T11:46:53;100520.34;;;7.31;73.90
75942;BME280;64622;46.220;19.878;2022-12-07T11:52:06;100512.78;;;7.57;83.92
75942;BME280;64622;46.220;19.878;2022-12-07T11:54:40;100498.41;;;7.87;71.32
75942;BME280;64622;46.220;19.878;2022-12-07T11:57:17;100503.12;;;8.33;72.61
75942;BME280;64622;46.220;19.878;2022-12-07T11:59:50;100502.56;;;8.77;73.74
75942;BME280;64622;46.220;19.878;2022-12-07T12:02:27;100495.56;;;8.76;71.34
75942;BME280;64622;46.220;19.878;2022-12-07T12:05:07;100500.16;;;9.03;74.87
75942;BME280;64622;46.220;19.878;2022-12-07T12:07:39;100499.66;;;9.63;72.30
75942;BME280;64622;46.220;19.878;2022-12-07T12:10:18;100496.28;;;10.32;75.21
75942;BME280;64622;46.220;19.878;2022-12-07T12:13:19;100481.47;;;10.98;58.26
75942;BME280;64622;46.220;19.878;2022-12-07T12:21:36;100469.62;;;10.40;64.52
75942;BME280;64622;46.220;19.878;2022-12-07T12:24:10;100468.69;;;10.92;56.00
75942;BME280;64622;46.220;19.878;2022-12-07T12:26:39;100472.62;;;11.06;64.79
75942;BME280;64622;46.220;19.878;2022-12-07T12:29:29;100473.16;;;10.84;61.83
75942;BME280;64622;46.220;19.878;2022-12-07T12:32:14;100475.31;;;10.80;57.83
75942;BME280;64622;46.220;19.878;2022-12-07T12:37:47;100474.84;;;10.24;62.48
75942;BME280;64622;46.220;19.878;2022-12-07T12:42:58;100485.69;;;9.42;64.66
75942;BME280;64622;46.220;19.878;2022-12-07T12:45:32;100471.06;;;9.00;61.46
75942;BME280;64622;46.220;19.878;2022-12-07T12:48:00;100470.66;;;8.95;61.36
75942;BME280;64622;46.220;19.878;2022-12-07T12:52:57;100465.41;;;8.57;64.14
75942;BME280;64622;46.220;19.878;2022-12-07T12:55:44;100472.00;;;8.24;63.02
75942;BME280;64622;46.220;19.878;2022-12-07T12:58:29;100469.34;;;8.24;64.95
75942;BME280;64622;46.220;19.878;2022-12-07T13:03:55;100487.94;;;7.17;70.22
75942;BME280;64622;46.220;19.878;2022-12-07T13:08:54;100486.06;;;7.07;68.51
75942;BME280;64622;46.220;19.878;2022-12-07T13:11:37;100481.81;;;6.96;69.03
75942;BME280;64622;46.220;19.878;2022-12-07T13:17:01;100490.19;;;6.71;71.63
75942;BME280;64622;46.220;19.878;2022-12-07T13:25:09;100494.91;;;6.47;74.44
75942;BME280;64622;46.220;19.878;2022-12-07T13:27:40;100489.84;;;6.64;73.78
75942;BME280;64622;46.220;19.878;2022-12-07T13:30:18;100494.78;;;6.48;75.24
75942;BME280;64622;46.220;19.878;2022-12-07T13:32:57;100495.31;;;6.31;75.07
75942;BME280;64622;46.220;19.878;2022-12-07T13:37:58;100488.72;;;6.14;76.03
75942;BME280;64622;46.220;19.878;2022-12-07T13:40:25;100482.72;;;6.12;77.18
75942;BME280;64622;46.220;19.878;2022-12-07T13:42:59;100488.41;;;6.08;76.15
75942;BME280;64622;46.220;19.878;2022-12-07T13:45:31;100481.06;;;6.01;77.06
75942;BME280;64622;46.220;19.878;2022-12-07T13:50:52;100487.84;;;5.93;76.69
75942;BME280;64622;46.220;19.878;2022-12-07T13:53:20;100486.66;;;5.87;77.10
75942;BME280;64622;46.220;19.878;2022-12-07T13:55:47;100482.78;;;5.68;77.47
75942;BME280;64622;46.220;19.878;2022-12-07T13:58:16;100494.37;;;5.67;78.42
75942;BME280;64622;46.220;19.878;2022-12-07T14:00:43;100490.19;;;5.54;80.70
75942;BME280;64622;46.220;19.878;2022-12-07T14:05:41;100494.53;;;5.44;80.97
75942;BME280;64622;46.220;19.878;2022-12-07T14:10:56;100499.97;;;5.42;82.60
75942;BME280;64622;46.220;19.878;2022-12-07T14:15:53;100498.37;;;5.40;84.27
75942;BME280;64622;46.220;19.878;2022-12-07T14:18:38;100498.75;;;5.35;83.78
75942;BME280;64622;46.220;19.878;2022-12-07T14:23:41;100486.81;;;4.97;84.21
75942;BME280;64622;46.220;19.878;2022-12-07T14:28:40;100495.56;;;4.75;85.52
75942;BME280;64622;46.220;19.878;2022-12-07T14:31:18;100492.25;;;4.61;86.21
75942;BME280;64622;46.220;19.878;2022-12-07T14:33:47;100501.66;;;4.54;85.96
75942;BME280;64622;46.220;19.878;2022-12-07T14:36:14;100505.75;;;4.47;86.90
75942;BME280;64622;46.220;19.878;2022-12-07T14:38:41;100502.19;;;4.35;87.72
75942;BME280;64622;46.220;19.878;2022-12-07T14:41:13;100507.00;;;4.30;89.65
75942;BME280;64622;46.220;19.878;2022-12-07T14:44:00;100500.41;;;4.12;90.51